SCSE/LSC METAR and TAF weather

Enter ICAO airport designator
Station Type Date Time Source
SCSE METAR 2019/02/20 07:00 UTC NOAA

SCSE 200700Z 14004KT 9999 OVC015 18/15 Q1013


Station Type Date Time Source
SCSE Decoded METAR 2019/02/20 07:00 UTC NOAA

La Serena, Chile (SCSE) 29-54S 071-12W
Feb 20, 2019 - 02:00 AM EST / 2019.02.20 0700 UTC
Wind: from the SE (140 degrees) at 5 MPH (4 KT):0
Visibility: greater than 7 mile(s):0
Sky conditions: overcast
Temperature: 64 F (18 C)
Dew Point: 59 F (15 C)
Relative Humidity: 82%
Pressure (altimeter): 29.91 in. Hg (1013 hPa)
ob: SCSE 200700Z 14004KT 9999 OVC015 18/15 Q1013
cycle: 7

Station Type Date Time Source
SCSE TAF 2019/02/20 06:03 UTC NOAA

TAF TAF SCSE 200410Z 2006/2106 28004KT 9999 SCT008 OVC016 TX20/2018Z TN15/2011Z
TEMPO 2008/2012 11004KT 5000 BR OVC008
BECMG 2016/2018 30010KT SCT015
BECMG 2018/2020 CAVOK
BECMG 2100/2102 29004KT SCT013


Example: see airport list